Time;durP1;ratioP1;P1;durP2;ratioP2;P2;SDS_P1;SDS_P2;PMS_P1;PMS_P2;Temp;Humidity;BMP_temperature;BMP_pressure;BME280_temperature;BME280_humidity;BME280_pressure;Samples;Min_cycle;Max_cycle;Signal;HPM_P1;HPM_P2
2022/12/31 00:00:29;;;;;;;0.70;0.70;;;;;;;;;;5015704;28;20435;-74
2022/12/31 00:02:57;;;;;;;0.80;0.80;;;;;;;;;;5016191;28;20446;-74
2022/12/31 00:05:23;;;;;;;0.90;0.53;;;;;;;;;;5005802;28;20427;-75
2022/12/31 00:07:49;;;;;;;1.33;1.13;;;;;;;;;;5017184;28;20934;-75
2022/12/31 00:10:15;;;;;;;0.80;0.80;;;;;;;;;;5014520;28;20436;-75
2022/12/31 00:12:41;;;;;;;0.70;0.70;;;;;;;;;;5016661;28;20463;-76
2022/12/31 00:15:07;;;;;;;0.60;0.60;;;;;;;;;;5037340;28;20419;-74
2022/12/31 00:17:33;;;;;;;0.80;0.80;;;;;;;;;;5031260;28;20438;-75
2022/12/31 00:19:59;;;;;;;0.30;0.30;;;;;;;;;;5032921;28;20437;-75
2022/12/31 00:22:25;;;;;;;0.50;0.47;;;;;;;;;;5040102;28;20798;-76
2022/12/31 00:24:51;;;;;;;0.47;0.47;;;;;;;;;;5030702;28;20414;-76
2022/12/31 00:27:17;;;;;;;0.50;0.40;;;;;;;;;;5030872;28;20566;-77
2022/12/31 00:29:43;;;;;;;0.50;0.50;;;;;;;;;;5010061;28;20414;-75
2022/12/31 00:32:09;;;;;;;0.50;0.50;;;;;;;;;;5040921;28;21006;-76
2022/12/31 00:34:35;;;;;;;0.50;0.50;;;;;;;;;;5032521;28;20426;-76
2022/12/31 00:37:01;;;;;;;0.40;0.40;;;;;;;;;;5032990;28;20433;-75
2022/12/31 00:39:27;;;;;;;0.70;0.70;;;;;;;;;;5028766;28;20443;-76
2022/12/31 00:41:53;;;;;;;0.70;0.70;;;;;;;;;;5026455;28;20466;-76
2022/12/31 00:44:20;;;;;;;0.80;0.80;;;;;;;;;;5026431;28;20402;-76
2022/12/31 00:46:46;;;;;;;0.70;0.70;;;;;;;;;;5040051;28;20426;-75
2022/12/31 00:49:12;;;;;;;0.50;0.50;;;;;;;;;;5045361;28;20409;-75
2022/12/31 00:51:38;;;;;;;0.70;0.70;;;;;;;;;;5023471;28;20427;-75
2022/12/31 00:54:04;;;;;;;1.50;1.50;;;;;;;;;;5033535;28;20474;-76
2022/12/31 00:56:31;;;;;;;1.33;1.33;;;;;;;;;;5043410;28;20426;-76
2022/12/31 00:58:58;;;;;;;1.07;0.97;;;;;;;;;;5042735;28;20413;-75
2022/12/31 01:01:25;;;;;;;1.20;1.10;;;;;;;;;;5026832;28;20627;-78
2022/12/31 01:03:52;;;;;;;0.70;0.70;;;;;;;;;;5002957;28;20777;-75
2022/12/31 01:06:18;;;;;;;0.80;0.80;;;;;;;;;;5025919;28;20438;-75
2022/12/31 01:08:44;;;;;;;1.50;1.50;;;;;;;;;;5037655;28;20438;-75
2022/12/31 01:11:17;;;;;;;1.53;1.00;;;;;;;;;;5025695;28;20450;-75
2022/12/31 01:13:44;;;;;;;0.97;0.97;;;;;;;;;;5016753;28;20502;-75
2022/12/31 01:16:10;;;;;;;0.90;0.90;;;;;;;;;;5019806;28;20440;-74
2022/12/31 01:18:36;;;;;;;0.70;0.70;;;;;;;;;;5019771;28;20448;-77
2022/12/31 01:21:03;;;;;;;0.77;0.77;;;;;;;;;;5024559;28;20517;-76
2022/12/31 01:23:30;;;;;;;0.67;0.67;;;;;;;;;;5035033;28;20446;-76
2022/12/31 01:25:58;;;;;;;0.63;0.63;;;;;;;;;;5034447;28;20491;-75
2022/12/31 01:28:24;;;;;;;0.80;0.80;;;;;;;;;;5013561;28;20443;-76
2022/12/31 01:30:50;;;;;;;0.70;0.70;;;;;;;;;;5029938;28;21369;-74
2022/12/31 01:33:16;;;;;;;0.70;0.70;;;;;;;;;;5030570;28;21296;-74
2022/12/31 01:35:42;;;;;;;0.53;0.50;;;;;;;;;;5024569;28;20581;-76
2022/12/31 01:38:08;;;;;;;0.70;0.70;;;;;;;;;;5036715;28;20446;-76
2022/12/31 01:40:38;;;;;;;0.70;0.70;;;;;;;;;;5034187;28;20951;-76
2022/12/31 01:43:15;;;;;;;0.50;0.50;;;;;;;;;;5027594;28;20453;-75
2022/12/31 01:45:43;;;;;;;0.53;0.53;;;;;;;;;;5024790;28;20450;-76
2022/12/31 01:48:11;;;;;;;0.50;0.50;;;;;;;;;;5021959;28;20440;-75
2022/12/31 01:50:39;;;;;;;0.63;0.63;;;;;;;;;;5032748;28;20457;-76
2022/12/31 01:53:06;;;;;;;0.40;0.40;;;;;;;;;;5031250;28;20474;-76
2022/12/31 01:55:32;;;;;;;0.57;0.57;;;;;;;;;;5031055;28;20423;-76
2022/12/31 01:58:04;;;;;;;1.53;0.70;;;;;;;;;;5028041;28;20434;-75
2022/12/31 02:00:31;;;;;;;0.63;0.63;;;;;;;;;;5012601;28;20420;-75
2022/12/31 02:02:57;;;;;;;0.53;0.53;;;;;;;;;;5023934;28;20994;-76
2022/12/31 02:05:23;;;;;;;0.40;0.40;;;;;;;;;;5033875;28;20934;-75
2022/12/31 02:07:49;;;;;;;0.40;0.40;;;;;;;;;;5021433;28;20449;-76
2022/12/31 02:10:15;;;;;;;0.40;0.40;;;;;;;;;;5020851;28;20430;-75
2022/12/31 02:12:41;;;;;;;0.50;0.50;;;;;;;;;;5020399;28;20494;-75
2022/12/31 02:15:07;;;;;;;0.40;0.40;;;;;;;;;;5023408;28;20437;-75
2022/12/31 02:17:40;;;;;;;0.37;0.37;;;;;;;;;;5030271;28;20451;-76
2022/12/31 02:20:31;;;;;;;0.40;0.40;;;;;;;;;;5005919;28;20428;-74
2022/12/31 02:23:15;;;;;;;0.33;0.33;;;;;;;;;;5013441;28;20466;-75
2022/12/31 02:26:00;;;;;;;0.43;0.43;;;;;;;;;;5034226;28;20433;-75
2022/12/31 02:28:26;;;;;;;0.30;0.30;;;;;;;;;;5034642;28;20442;-76
2022/12/31 02:30:55;;;;;;;0.30;0.30;;;;;;;;;;5029356;28;20442;-76
2022/12/31 02:33:24;;;;;;;0.30;0.30;;;;;;;;;;5014874;28;20471;-76
2022/12/31 02:35:58;;;;;;;0.40;0.40;;;;;;;;;;5032710;28;20937;-74
2022/12/31 02:38:33;;;;;;;0.83;0.30;;;;;;;;;;5040327;28;20778;-76
2022/12/31 02:40:59;;;;;;;1.30;0.40;;;;;;;;;;5052616;28;20428;-76
2022/12/31 02:43:25;;;;;;;3.83;0.40;;;;;;;;;;5026416;28;21011;-74
2022/12/31 02:46:00;;;;;;;0.30;0.30;;;;;;;;;;5047843;28;20476;-76
2022/12/31 02:48:37;;;;;;;0.30;0.30;;;;;;;;;;5034251;28;20811;-76
2022/12/31 02:51:11;;;;;;;0.33;0.33;;;;;;;;;;5008836;28;20538;-76
2022/12/31 02:53:53;;;;;;;0.47;0.30;;;;;;;;;;5024975;28;20506;-75
2022/12/31 02:56:24;;;;;;;0.30;0.30;;;;;;;;;;5008572;28;20427;-76
2022/12/31 03:04:33;;;;;;;0.20;0.20;;;;;;;;;;5015344;28;20419;-76
2022/12/31 03:07:00;;;;;;;0.20;0.20;;;;;;;;;;5022666;28;20443;-76
2022/12/31 03:09:26;;;;;;;0.20;0.20;;;;;;;;;;5021808;28;20411;-75
2022/12/31 03:14:37;;;;;;;0.30;0.30;;;;;;;;;;5018988;28;20410;-76
2022/12/31 03:17:03;;;;;;;0.27;0.27;;;;;;;;;;5032983;28;20508;-76
2022/12/31 03:22:29;;;;;;;0.30;0.30;;;;;;;;;;5016359;28;20492;-76
2022/12/31 03:27:46;;;;;;;0.20;0.20;;;;;;;;;;5013211;28;20417;-75
2022/12/31 03:30:13;;;;;;;0.30;0.30;;;;;;;;;;5030050;28;20517;-76
2022/12/31 03:32:39;;;;;;;0.30;0.30;;;;;;;;;;5022879;28;20494;-74
2022/12/31 03:35:05;;;;;;;0.40;0.40;;;;;;;;;;5025692;28;20796;-76
2022/12/31 03:37:31;;;;;;;0.47;0.47;;;;;;;;;;5030549;28;20443;-75
2022/12/31 03:39:57;;;;;;;0.20;0.20;;;;;;;;;;5026139;28;20426;-73
2022/12/31 03:42:23;;;;;;;0.20;0.20;;;;;;;;;;5022481;28;21177;-74
2022/12/31 03:44:49;;;;;;;0.20;0.20;;;;;;;;;;5015159;28;20416;-75
2022/12/31 03:47:15;;;;;;;0.30;0.30;;;;;;;;;;5027631;28;20441;-74
2022/12/31 03:49:41;;;;;;;0.33;0.33;;;;;;;;;;5031539;28;20939;-75
2022/12/31 03:52:07;;;;;;;0.20;0.20;;;;;;;;;;5027075;28;20467;-76
2022/12/31 03:54:33;;;;;;;0.30;0.30;;;;;;;;;;5007991;28;20437;-75
2022/12/31 03:56:59;;;;;;;0.30;0.30;;;;;;;;;;5022959;28;20546;-75
2022/12/31 03:59:25;;;;;;;0.30;0.30;;;;;;;;;;5010485;28;20511;-75
2022/12/31 04:01:51;;;;;;;0.30;0.30;;;;;;;;;;5007917;28;20443;-75
2022/12/31 04:04:17;;;;;;;0.30;0.30;;;;;;;;;;5032887;28;20411;-75
2022/12/31 04:06:45;;;;;;;0.73;0.40;;;;;;;;;;5032137;28;20430;-75
2022/12/31 04:09:11;;;;;;;0.30;0.30;;;;;;;;;;5016078;28;20453;-75
2022/12/31 04:11:37;;;;;;;0.40;0.40;;;;;;;;;;5031082;28;20460;-75
2022/12/31 04:14:03;;;;;;;0.27;0.27;;;;;;;;;;5010894;28;20461;-76
2022/12/31 04:16:32;;;;;;;0.30;0.30;;;;;;;;;;5032895;28;20431;-75
2022/12/31 04:18:58;;;;;;;0.30;0.30;;;;;;;;;;5006529;28;20411;-76
2022/12/31 04:21:24;;;;;;;0.30;0.30;;;;;;;;;;5021562;28;20451;-74
2022/12/31 04:23:50;;;;;;;0.50;0.30;;;;;;;;;;5019796;28;21001;-76
2022/12/31 04:26:16;;;;;;;0.30;0.30;;;;;;;;;;5034910;28;20529;-75
2022/12/31 04:28:42;;;;;;;0.67;0.30;;;;;;;;;;5018040;28;20847;-76
2022/12/31 04:31:10;;;;;;;0.30;0.30;;;;;;;;;;5030602;28;20434;-74
2022/12/31 04:33:36;;;;;;;0.30;0.30;;;;;;;;;;5007847;28;20566;-75
2022/12/31 04:36:06;;;;;;;1.30;0.30;;;;;;;;;;5026452;28;20625;-74
2022/12/31 04:38:32;;;;;;;0.33;0.33;;;;;;;;;;5005806;28;20842;-75
2022/12/31 04:41:16;;;;;;;0.20;0.20;;;;;;;;;;5036745;28;20427;-75
2022/12/31 04:43:46;;;;;;;0.30;0.30;;;;;;;;;;5032554;28;20442;-75
2022/12/31 04:46:13;;;;;;;1.23;0.20;;;;;;;;;;5021383;28;20424;-75
2022/12/31 04:48:39;;;;;;;0.60;0.30;;;;;;;;;;5018668;28;20538;-74
2022/12/31 04:51:05;;;;;;;0.30;0.30;;;;;;;;;;5025777;28;20459;-75
2022/12/31 04:53:31;;;;;;;0.40;0.40;;;;;;;;;;5039272;28;20640;-74
2022/12/31 04:55:57;;;;;;;0.20;0.20;;;;;;;;;;5036136;28;20496;-75
2022/12/31 04:58:23;;;;;;;2.47;0.50;;;;;;;;;;5025335;28;20976;-75
2022/12/31 05:00:53;;;;;;;0.30;0.30;;;;;;;;;;5025878;28;20517;-75
2022/12/31 05:03:19;;;;;;;0.40;0.40;;;;;;;;;;5020439;28;20937;-75
2022/12/31 05:05:45;;;;;;;0.50;0.40;;;;;;;;;;5022004;28;20463;-75
2022/12/31 05:08:12;;;;;;;0.40;0.40;;;;;;;;;;5018766;28;20447;-75
2022/12/31 05:10:42;;;;;;;0.30;0.30;;;;;;;;;;5024010;28;20449;-74
2022/12/31 05:13:09;;;;;;;0.40;0.40;;;;;;;;;;5014264;28;20483;-74
2022/12/31 05:15:35;;;;;;;0.50;0.33;;;;;;;;;;5021981;28;20446;-75
2022/12/31 05:18:01;;;;;;;0.40;0.40;;;;;;;;;;5020802;28;20438;-75
2022/12/31 05:20:28;;;;;;;0.40;0.33;;;;;;;;;;5020680;28;20481;-75
2022/12/31 05:22:54;;;;;;;0.30;0.30;;;;;;;;;;5028544;28;20489;-75
2022/12/31 05:25:20;;;;;;;0.30;0.30;;;;;;;;;;5017509;28;20448;-75
2022/12/31 05:27:46;;;;;;;0.40;0.40;;;;;;;;;;5029882;28;21371;-75
2022/12/31 05:30:12;;;;;;;0.30;0.30;;;;;;;;;;5033614;28;20910;-74
2022/12/31 05:32:39;;;;;;;0.40;0.40;;;;;;;;;;5013260;28;20508;-74
2022/12/31 05:35:06;;;;;;;1.70;0.27;;;;;;;;;;5017121;28;20486;-73
2022/12/31 05:37:32;;;;;;;0.30;0.30;;;;;;;;;;5025047;28;20830;-75
2022/12/31 05:39:58;;;;;;;0.50;0.50;;;;;;;;;;5035491;28;20439;-75
2022/12/31 05:42:24;;;;;;;1.27;0.40;;;;;;;;;;5013976;28;21069;-73
2022/12/31 05:44:50;;;;;;;0.37;0.30;;;;;;;;;;5022893;28;20419;-74
2022/12/31 05:47:17;;;;;;;3.17;0.57;;;;;;;;;;5025082;28;21352;-75
2022/12/31 05:49:43;;;;;;;0.30;0.30;;;;;;;;;;5022328;28;20844;-75
2022/12/31 05:52:08;;;;;;;1.13;0.40;;;;;;;;;;5020270;28;20501;-75
2022/12/31 05:54:35;;;;;;;0.40;0.40;;;;;;;;;;5023928;28;20426;-74
2022/12/31 05:57:01;;;;;;;1.50;0.40;;;;;;;;;;5022752;28;24034;-74
2022/12/31 05:59:27;;;;;;;0.40;0.40;;;;;;;;;;5021747;28;20497;-75
2022/12/31 06:01:53;;;;;;;0.40;0.40;;;;;;;;;;5022105;28;20434;-74
2022/12/31 06:04:19;;;;;;;0.40;0.40;;;;;;;;;;5032890;28;20410;-75
2022/12/31 06:06:45;;;;;;;0.30;0.30;;;;;;;;;;5014501;28;20435;-75
2022/12/31 06:09:12;;;;;;;0.40;0.40;;;;;;;;;;5024627;28;20848;-75
2022/12/31 06:11:38;;;;;;;0.60;0.50;;;;;;;;;;5035588;28;20441;-76
2022/12/31 06:14:04;;;;;;;0.77;0.43;;;;;;;;;;5012704;28;20474;-75
2022/12/31 06:16:30;;;;;;;0.40;0.40;;;;;;;;;;5030340;28;20434;-74
2022/12/31 06:18:56;;;;;;;1.17;0.60;;;;;;;;;;5029264;28;20885;-75
2022/12/31 06:21:22;;;;;;;0.97;0.50;;;;;;;;;;5032954;28;20469;-76
2022/12/31 06:23:50;;;;;;;1.33;0.43;;;;;;;;;;5039585;28;20445;-73
2022/12/31 06:26:16;;;;;;;0.40;0.40;;;;;;;;;;5035074;28;20438;-74
2022/12/31 06:28:42;;;;;;;0.30;0.30;;;;;;;;;;5029543;28;20492;-75
2022/12/31 06:31:10;;;;;;;0.93;0.43;;;;;;;;;;5026229;28;20443;-72
2022/12/31 06:33:37;;;;;;;0.60;0.40;;;;;;;;;;5016295;28;20542;-74
2022/12/31 06:36:04;;;;;;;0.60;0.60;;;;;;;;;;5029666;28;20438;-74
2022/12/31 06:38:32;;;;;;;0.40;0.40;;;;;;;;;;5032296;28;20446;-75
2022/12/31 06:41:02;;;;;;;5.53;0.47;;;;;;;;;;5016984;28;20438;-75
2022/12/31 06:43:28;;;;;;;0.97;0.53;;;;;;;;;;5031251;28;20458;-75
2022/12/31 06:45:54;;;;;;;0.40;0.40;;;;;;;;;;5034367;28;20454;-74
2022/12/31 06:48:20;;;;;;;0.67;0.67;;;;;;;;;;5026570;28;20407;-75
2022/12/31 06:50:46;;;;;;;0.40;0.40;;;;;;;;;;5023718;28;20442;-75
2022/12/31 06:53:12;;;;;;;1.13;0.50;;;;;;;;;;5026262;28;20484;-76
2022/12/31 06:55:38;;;;;;;0.40;0.40;;;;;;;;;;5024959;28;20541;-75
2022/12/31 06:58:11;;;;;;;0.47;0.40;;;;;;;;;;5024669;28;20415;-76
2022/12/31 07:00:37;;;;;;;0.83;0.83;;;;;;;;;;5024896;28;20503;-75
2022/12/31 07:03:09;;;;;;;0.43;0.43;;;;;;;;;;5026424;28;20924;-75
2022/12/31 07:05:41;;;;;;;1.03;0.50;;;;;;;;;;5013528;28;20452;-74
2022/12/31 07:08:23;;;;;;;1.13;0.70;;;;;;;;;;5027315;28;20489;-75
2022/12/31 07:10:56;;;;;;;3.50;0.50;;;;;;;;;;5018108;28;20509;-75
2022/12/31 07:13:22;;;;;;;0.93;0.50;;;;;;;;;;5015604;28;20455;-76
2022/12/31 07:15:48;;;;;;;0.60;0.60;;;;;;;;;;5034062;28;20541;-74
2022/12/31 07:18:23;;;;;;;0.30;0.30;;;;;;;;;;5026083;28;20434;-75
2022/12/31 07:20:49;;;;;;;1.23;0.60;;;;;;;;;;5016718;28;20456;-75
2022/12/31 07:23:15;;;;;;;2.07;0.60;;;;;;;;;;5034531;28;21168;-74
2022/12/31 07:25:46;;;;;;;0.50;0.50;;;;;;;;;;5019231;28;20433;-74
2022/12/31 07:28:34;;;;;;;0.50;0.50;;;;;;;;;;5028532;28;20415;-75
2022/12/31 07:31:04;;;;;;;0.60;0.60;;;;;;;;;;5019338;28;20434;-74
2022/12/31 07:33:30;;;;;;;0.40;0.40;;;;;;;;;;5016149;28;20467;-75
2022/12/31 07:35:56;;;;;;;0.40;0.40;;;;;;;;;;5023379;28;20435;-75
2022/12/31 07:38:24;;;;;;;0.40;0.40;;;;;;;;;;5024697;28;20435;-75
2022/12/31 07:41:05;;;;;;;0.93;0.67;;;;;;;;;;5021088;28;21024;-77
2022/12/31 07:43:41;;;;;;;0.50;0.50;;;;;;;;;;5015630;28;20450;-73
2022/12/31 07:46:17;;;;;;;0.60;0.60;;;;;;;;;;5026276;28;20865;-75
2022/12/31 07:48:43;;;;;;;0.80;0.80;;;;;;;;;;5023048;28;20466;-74
2022/12/31 07:51:09;;;;;;;1.03;0.40;;;;;;;;;;5025361;28;20450;-74
2022/12/31 07:53:36;;;;;;;0.97;0.50;;;;;;;;;;5026502;28;20485;-74
2022/12/31 07:56:03;;;;;;;0.80;0.80;;;;;;;;;;5025627;28;20431;-74
2022/12/31 07:58:47;;;;;;;2.27;0.67;;;;;;;;;;5023243;28;20442;-74
2022/12/31 08:01:15;;;;;;;0.57;0.57;;;;;;;;;;5020606;28;20465;-76
2022/12/31 08:03:47;;;;;;;0.83;0.50;;;;;;;;;;5024321;28;20494;-74
2022/12/31 08:06:36;;;;;;;0.73;0.70;;;;;;;;;;5015619;28;20539;-74
2022/12/31 08:09:02;;;;;;;0.40;0.40;;;;;;;;;;5006383;28;20419;-76
2022/12/31 08:11:42;;;;;;;0.90;0.90;;;;;;;;;;5020532;28;20520;-74
2022/12/31 08:14:12;;;;;;;1.17;1.00;;;;;;;;;;5025262;28;20458;-75
2022/12/31 08:16:38;;;;;;;0.80;0.80;;;;;;;;;;5024486;28;20443;-75
2022/12/31 08:19:04;;;;;;;0.47;0.47;;;;;;;;;;5024642;28;20411;-74
2022/12/31 08:21:36;;;;;;;0.53;0.30;;;;;;;;;;5027839;28;20465;-75
2022/12/31 08:24:22;;;;;;;0.70;0.53;;;;;;;;;;5028654;28;20894;-75
2022/12/31 08:27:00;;;;;;;1.03;0.90;;;;;;;;;;5022389;28;20965;-75
2022/12/31 08:29:33;;;;;;;0.77;0.77;;;;;;;;;;5025591;28;20422;-75
2022/12/31 08:32:10;;;;;;;0.83;0.83;;;;;;;;;;5021943;28;21149;-76
2022/12/31 08:34:48;;;;;;;0.60;0.60;;;;;;;;;;5024533;28;20536;-75
2022/12/31 08:37:26;;;;;;;0.93;0.50;;;;;;;;;;5015941;28;20984;-74
2022/12/31 08:39:52;;;;;;;1.50;0.83;;;;;;;;;;5022271;28;21265;-75
2022/12/31 08:42:21;;;;;;;0.50;0.50;;;;;;;;;;5019263;28;20510;-75
2022/12/31 08:44:47;;;;;;;0.73;0.60;;;;;;;;;;5023730;28;21099;-74
2022/12/31 08:47:16;;;;;;;0.43;0.43;;;;;;;;;;5024235;28;20431;-74
2022/12/31 08:49:42;;;;;;;0.47;0.47;;;;;;;;;;5023225;28;20431;-76
2022/12/31 08:52:19;;;;;;;1.10;0.53;;;;;;;;;;5023749;28;20501;-76
2022/12/31 08:54:45;;;;;;;0.87;0.60;;;;;;;;;;5016764;28;20442;-75
2022/12/31 08:57:32;;;;;;;0.80;0.60;;;;;;;;;;5018152;28;20435;-76
2022/12/31 09:00:04;;;;;;;0.30;0.30;;;;;;;;;;5025794;28;20508;-74
2022/12/31 09:02:39;;;;;;;2.10;0.47;;;;;;;;;;5021107;28;20437;-75
2022/12/31 09:05:11;;;;;;;0.50;0.40;;;;;;;;;;5023618;28;20453;-75
2022/12/31 09:07:40;;;;;;;1.33;0.60;;;;;;;;;;5015486;28;20439;-76
2022/12/31 09:10:14;;;;;;;0.83;0.83;;;;;;;;;;5028348;28;20797;-74
2022/12/31 09:12:59;;;;;;;1.43;1.43;;;;;;;;;;5017370;28;21038;-75
2022/12/31 09:15:29;;;;;;;0.60;0.60;;;;;;;;;;5030094;28;21040;-74
2022/12/31 09:17:55;;;;;;;2.50;0.80;;;;;;;;;;5021553;28;20430;-75
2022/12/31 09:20:24;;;;;;;0.80;0.80;;;;;;;;;;5023484;28;20443;-74
2022/12/31 09:22:51;;;;;;;1.03;0.93;;;;;;;;;;5028521;28;20726;-75
2022/12/31 09:25:18;;;;;;;0.50;0.50;;;;;;;;;;5021089;28;20450;-76
2022/12/31 09:28:03;;;;;;;2.20;0.70;;;;;;;;;;5025820;28;20529;-74
2022/12/31 09:30:34;;;;;;;1.00;0.60;;;;;;;;;;5018725;28;21035;-74
2022/12/31 09:33:16;;;;;;;0.60;0.60;;;;;;;;;;5019752;28;20738;-76
2022/12/31 09:35:52;;;;;;;0.70;0.70;;;;;;;;;;5022215;28;20414;-76
2022/12/31 09:38:29;;;;;;;0.70;0.70;;;;;;;;;;5021080;28;20803;-74
2022/12/31 09:41:14;;;;;;;2.90;0.70;;;;;;;;;;5016166;28;20474;-74
2022/12/31 09:43:43;;;;;;;0.90;0.90;;;;;;;;;;5025616;28;20418;-74
2022/12/31 09:46:17;;;;;;;0.70;0.70;;;;;;;;;;5015405;28;20930;-75
2022/12/31 09:48:55;;;;;;;1.17;1.17;;;;;;;;;;5021139;28;20465;-77
2022/12/31 09:51:28;;;;;;;0.50;0.50;;;;;;;;;;5032292;28;20840;-75
2022/12/31 09:54:07;;;;;;;1.60;1.50;;;;;;;;;;5021187;28;20474;-75
2022/12/31 09:56:47;;;;;;;0.60;0.60;;;;;;;;;;5026477;28;20446;-75
2022/12/31 09:59:15;;;;;;;1.53;0.87;;;;;;;;;;5022595;28;20537;-74
2022/12/31 10:01:47;;;;;;;2.00;0.60;;;;;;;;;;5022569;28;20641;-76
2022/12/31 10:04:23;;;;;;;3.87;1.07;;;;;;;;;;5019387;28;20556;-74
2022/12/31 10:07:08;;;;;;;1.93;0.67;;;;;;;;;;5020839;28;20438;-77
2022/12/31 10:09:44;;;;;;;2.20;1.30;;;;;;;;;;5024416;28;20787;-77
2022/12/31 10:12:29;;;;;;;0.80;0.80;;;;;;;;;;5026854;28;20429;-74
2022/12/31 10:15:13;;;;;;;1.03;1.03;;;;;;;;;;5019698;28;20502;-75
2022/12/31 10:17:51;;;;;;;1.03;1.03;;;;;;;;;;5046934;28;20426;-74
2022/12/31 10:20:35;;;;;;;1.07;0.83;;;;;;;;;;5014727;28;20430;-75
2022/12/31 10:23:17;;;;;;;0.90;0.90;;;;;;;;;;5023423;28;20450;-75
2022/12/31 10:25:58;;;;;;;1.03;0.70;;;;;;;;;;5037419;28;20434;-76
2022/12/31 10:28:24;;;;;;;1.13;0.80;;;;;;;;;;5021309;28;20446;-75
2022/12/31 10:31:13;;;;;;;2.00;1.27;;;;;;;;;;5031245;28;20429;-75
2022/12/31 10:34:00;;;;;;;0.83;0.83;;;;;;;;;;5012574;28;20485;-75
2022/12/31 10:36:26;;;;;;;0.50;0.50;;;;;;;;;;5026226;28;20545;-74
2022/12/31 10:38:55;;;;;;;2.30;1.07;;;;;;;;;;5032721;28;20418;-74
2022/12/31 10:41:21;;;;;;;0.60;0.60;;;;;;;;;;5027658;28;20419;-75
2022/12/31 10:43:59;;;;;;;1.47;0.97;;;;;;;;;;5023060;28;20441;-74
2022/12/31 10:46:31;;;;;;;0.90;0.70;;;;;;;;;;5025483;28;20761;-73
2022/12/31 10:49:06;;;;;;;1.23;0.93;;;;;;;;;;5014049;28;20986;-75
2022/12/31 10:51:41;;;;;;;1.60;0.70;;;;;;;;;;5028960;28;20461;-76
2022/12/31 10:54:16;;;;;;;0.63;0.63;;;;;;;;;;5033738;28;20883;-74
2022/12/31 10:56:45;;;;;;;0.70;0.60;;;;;;;;;;5029294;28;21015;-75
2022/12/31 10:59:23;;;;;;;2.20;1.30;;;;;;;;;;5026309;28;20399;-74
2022/12/31 11:01:58;;;;;;;1.60;1.17;;;;;;;;;;5017558;28;20426;-74
2022/12/31 11:04:37;;;;;;;1.70;0.87;;;;;;;;;;5017803;28;20435;-74
2022/12/31 11:07:22;;;;;;;0.43;0.43;;;;;;;;;;5014695;28;20426;-74
2022/12/31 11:10:02;;;;;;;1.77;1.03;;;;;;;;;;5019135;28;20453;-74
2022/12/31 11:12:48;;;;;;;0.70;0.70;;;;;;;;;;5024311;28;20472;-74
2022/12/31 11:15:20;;;;;;;1.67;0.77;;;;;;;;;;5018555;28;20410;-78
2022/12/31 11:17:53;;;;;;;2.67;0.67;;;;;;;;;;5024981;28;20906;-74
2022/12/31 11:20:25;;;;;;;1.07;1.00;;;;;;;;;;5024257;28;20617;-76
2022/12/31 11:23:10;;;;;;;1.00;1.00;;;;;;;;;;5020890;28;20465;-76
2022/12/31 11:25:54;;;;;;;2.47;1.27;;;;;;;;;;5023058;28;20399;-75
2022/12/31 11:28:20;;;;;;;0.90;0.90;;;;;;;;;;5022808;28;20443;-75
2022/12/31 11:30:55;;;;;;;1.37;1.10;;;;;;;;;;5020502;28;20828;-76
2022/12/31 11:33:41;;;;;;;2.00;1.10;;;;;;;;;;5036906;28;20469;-77
2022/12/31 11:36:19;;;;;;;1.73;1.63;;;;;;;;;;5028678;28;20431;-76
2022/12/31 11:38:50;;;;;;;1.90;0.87;;;;;;;;;;5023140;28;20423;-77
2022/12/31 11:41:22;;;;;;;1.63;0.93;;;;;;;;;;5041366;28;20407;-74
2022/12/31 11:44:05;;;;;;;1.03;0.80;;;;;;;;;;5025784;28;20825;-75
2022/12/31 11:46:50;;;;;;;1.40;1.30;;;;;;;;;;5021993;28;21056;-74
2022/12/31 11:49:22;;;;;;;1.90;0.80;;;;;;;;;;5018160;28;20442;-75
2022/12/31 11:52:07;;;;;;;1.13;1.10;;;;;;;;;;5017579;28;20468;-74
2022/12/31 11:54:33;;;;;;;2.97;1.00;;;;;;;;;;5019112;28;20447;-74
2022/12/31 11:57:17;;;;;;;1.00;1.00;;;;;;;;;;5028183;28;21222;-75
2022/12/31 11:59:44;;;;;;;1.33;0.70;;;;;;;;;;5025295;28;20453;-75
2022/12/31 12:02:20;;;;;;;1.00;1.00;;;;;;;;;;5018428;28;20544;-73
2022/12/31 12:04:48;;;;;;;0.70;0.70;;;;;;;;;;5021681;28;20940;-74
2022/12/31 12:07:15;;;;;;;1.63;1.63;;;;;;;;;;5018334;28;20454;-75
2022/12/31 12:09:43;;;;;;;1.63;1.10;;;;;;;;;;5020472;28;20432;-74
2022/12/31 12:12:09;;;;;;;2.00;1.30;;;;;;;;;;5017871;28;20435;-74
2022/12/31 12:14:39;;;;;;;2.37;1.73;;;;;;;;;;5020502;28;20440;-74
2022/12/31 12:17:07;;;;;;;0.90;0.90;;;;;;;;;;5025520;28;20464;-74
2022/12/31 12:19:34;;;;;;;1.20;0.97;;;;;;;;;;5021272;28;20505;-74
2022/12/31 12:22:18;;;;;;;0.57;0.57;;;;;;;;;;5033725;28;20438;-75
2022/12/31 12:24:54;;;;;;;0.73;0.73;;;;;;;;;;5020714;28;20439;-74
2022/12/31 12:27:22;;;;;;;1.00;0.67;;;;;;;;;;5031103;28;20454;-74
2022/12/31 12:29:48;;;;;;;0.83;0.77;;;;;;;;;;5022358;28;20449;-73
2022/12/31 12:32:21;;;;;;;2.20;0.77;;;;;;;;;;5027554;28;21141;-74
2022/12/31 12:34:47;;;;;;;3.27;1.17;;;;;;;;;;5021543;28;20445;-75
2022/12/31 12:37:25;;;;;;;4.37;1.53;;;;;;;;;;5029208;28;20445;-75
2022/12/31 12:39:59;;;;;;;2.77;1.30;;;;;;;;;;5023991;28;20438;-75
2022/12/31 12:42:26;;;;;;;0.77;0.60;;;;;;;;;;5028974;28;20996;-74
2022/12/31 12:45:01;;;;;;;0.67;0.67;;;;;;;;;;5030521;28;20431;-75
2022/12/31 12:47:28;;;;;;;1.03;1.03;;;;;;;;;;5029712;28;20506;-76
2022/12/31 12:49:54;;;;;;;2.47;1.43;;;;;;;;;;5022693;28;20441;-77
2022/12/31 12:52:32;;;;;;;2.07;1.03;;;;;;;;;;5026229;28;20451;-75
2022/12/31 12:54:58;;;;;;;4.40;1.77;;;;;;;;;;5018148;28;20440;-76
2022/12/31 12:57:41;;;;;;;2.73;1.23;;;;;;;;;;5008246;28;20437;-75
2022/12/31 13:00:20;;;;;;;0.70;0.70;;;;;;;;;;5025145;28;20461;-75
2022/12/31 13:02:55;;;;;;;3.70;1.10;;;;;;;;;;5020025;28;20449;-75
2022/12/31 13:05:39;;;;;;;1.10;1.00;;;;;;;;;;5012749;28;20484;-75
2022/12/31 13:08:05;;;;;;;1.57;1.20;;;;;;;;;;5020173;28;20773;-74
2022/12/31 13:10:50;;;;;;;1.30;1.20;;;;;;;;;;5016069;28;20568;-76
2022/12/31 13:13:16;;;;;;;3.57;1.07;;;;;;;;;;5024159;28;20544;-75
2022/12/31 13:15:51;;;;;;;1.70;0.93;;;;;;;;;;5026905;28;20466;-75
2022/12/31 13:18:41;;;;;;;1.23;0.70;;;;;;;;;;5020943;28;20515;-75
2022/12/31 13:21:45;;;;;;;3.63;1.23;;;;;;;;;;5011269;28;20426;-78
2022/12/31 13:24:14;;;;;;;1.20;0.97;;;;;;;;;;4919073;29;20750;-76
2022/12/31 13:26:39;;;;;;;1.40;1.30;;;;;;;;;;4921950;29;20434;-74
2022/12/31 13:29:12;;;;;;;2.40;1.40;;;;;;;;;;4965942;28;20441;-76
2022/12/31 13:31:38;;;;;;;2.67;1.43;;;;;;;;;;5017596;28;20508;-78
2022/12/31 13:34:13;;;;;;;1.87;1.70;;;;;;;;;;5023953;28;20939;-75
2022/12/31 13:36:40;;;;;;;1.50;1.33;;;;;;;;;;5017528;28;20421;-76
2022/12/31 13:39:18;;;;;;;1.10;1.00;;;;;;;;;;5032506;28;20445;-76
2022/12/31 13:41:48;;;;;;;2.40;0.90;;;;;;;;;;5025318;28;20441;-75
2022/12/31 13:44:17;;;;;;;1.40;1.17;;;;;;;;;;5017825;28;20460;-76
2022/12/31 13:46:48;;;;;;;1.90;0.97;;;;;;;;;;5029211;28;20446;-75
2022/12/31 13:49:18;;;;;;;2.37;0.70;;;;;;;;;;5024506;28;21004;-76
2022/12/31 13:51:45;;;;;;;1.20;1.10;;;;;;;;;;5026904;28;20448;-76
2022/12/31 13:54:14;;;;;;;2.83;0.87;;;;;;;;;;5032778;28;20474;-76
2022/12/31 13:56:41;;;;;;;0.60;0.60;;;;;;;;;;5032089;28;20982;-75
2022/12/31 13:59:15;;;;;;;1.33;0.93;;;;;;;;;;5028877;28;20434;-75
2022/12/31 14:02:01;;;;;;;1.23;1.17;;;;;;;;;;5025718;28;20456;-74
2022/12/31 14:04:31;;;;;;;1.20;1.10;;;;;;;;;;5017898;28;20561;-75
2022/12/31 14:07:15;;;;;;;0.90;0.90;;;;;;;;;;5027153;28;20437;-75
2022/12/31 14:09:41;;;;;;;1.53;1.33;;;;;;;;;;5025728;28;20529;-76
2022/12/31 14:12:26;;;;;;;1.20;1.20;;;;;;;;;;5027843;28;20434;-76
2022/12/31 14:15:00;;;;;;;0.80;0.80;;;;;;;;;;5019212;28;20442;-76
2022/12/31 14:17:35;;;;;;;1.30;0.90;;;;;;;;;;5033276;28;20421;-76
2022/12/31 14:20:16;;;;;;;1.40;1.30;;;;;;;;;;5020387;28;20564;-76
2022/12/31 14:22:42;;;;;;;3.53;0.90;;;;;;;;;;5023900;28;20877;-76
2022/12/31 14:25:21;;;;;;;1.30;1.20;;;;;;;;;;5038904;28;20442;-75
2022/12/31 14:27:47;;;;;;;1.53;1.40;;;;;;;;;;5018276;28;20430;-75
2022/12/31 14:30:18;;;;;;;1.20;1.20;;;;;;;;;;5030835;28;20426;-75
2022/12/31 14:32:52;;;;;;;2.03;1.90;;;;;;;;;;5020174;28;20481;-75
2022/12/31 14:35:25;;;;;;;3.00;0.80;;;;;;;;;;5031194;28;20980;-76
2022/12/31 14:38:06;;;;;;;1.03;1.03;;;;;;;;;;5020848;28;20435;-75
2022/12/31 14:40:49;;;;;;;2.40;1.50;;;;;;;;;;5031118;28;20541;-75
2022/12/31 14:43:30;;;;;;;3.00;1.20;;;;;;;;;;5015064;28;20442;-75
2022/12/31 14:46:09;;;;;;;2.00;1.23;;;;;;;;;;5022737;28;20442;-76
2022/12/31 14:48:41;;;;;;;1.73;1.70;;;;;;;;;;5025024;28;20554;-75
2022/12/31 14:51:07;;;;;;;2.33;2.13;;;;;;;;;;5027126;28;20434;-74
2022/12/31 14:53:33;;;;;;;1.23;1.20;;;;;;;;;;5032940;28;20561;-76
2022/12/31 14:56:28;;;;;;;2.83;1.80;;;;;;;;;;5026451;28;20722;-76
2022/12/31 14:58:58;;;;;;;1.20;1.20;;;;;;;;;;5025130;28;20417;-76
2022/12/31 15:01:25;;;;;;;1.37;1.10;;;;;;;;;;5008388;28;20432;-76
2022/12/31 15:03:52;;;;;;;2.63;1.60;;;;;;;;;;5027361;28;20422;-76
2022/12/31 15:06:24;;;;;;;1.93;1.83;;;;;;;;;;5009662;28;20431;-77
2022/12/31 15:08:53;;;;;;;2.40;1.23;;;;;;;;;;5013989;28;20484;-77
2022/12/31 15:11:22;;;;;;;3.70;1.60;;;;;;;;;;5040182;28;20653;-77
2022/12/31 15:14:06;;;;;;;3.23;1.80;;;;;;;;;;5012626;28;20466;-75
2022/12/31 15:16:47;;;;;;;1.67;1.53;;;;;;;;;;5026260;28;20432;-76
2022/12/31 15:19:13;;;;;;;2.00;1.67;;;;;;;;;;5018999;28;20484;-76